createdAt,value
2018-07-13T00:01:52.949Z,9.67
2018-07-13T00:04:22.576Z,10.50
2018-07-13T00:08:16.048Z,11.03
2018-07-13T00:10:45.566Z,13.33
2018-07-13T00:13:15.064Z,12.47
2018-07-13T00:15:55.323Z,12.13
2018-07-13T00:18:24.808Z,12.53
2018-07-13T00:20:54.331Z,12.83
2018-07-13T00:23:23.821Z,11.97
2018-07-13T00:25:53.384Z,12.37
2018-07-13T00:28:22.984Z,12.43
2018-07-13T00:30:51.908Z,13.07
2018-07-13T00:33:21.396Z,12.40
2018-07-13T00:35:51.017Z,12.73
2018-07-13T00:38:20.500Z,14.33
2018-07-13T00:40:50.017Z,14.93
2018-07-13T00:43:19.508Z,15.30
2018-07-13T00:45:49.021Z,15.23
2018-07-13T00:48:18.488Z,15.73
2018-07-13T00:50:48.016Z,16.47
2018-07-13T00:53:17.501Z,16.60
2018-07-13T00:55:46.981Z,16.27
2018-07-13T00:58:16.520Z,16.90
2018-07-13T01:00:46.004Z,16.60
2018-07-13T01:03:15.852Z,17.07
2018-07-13T01:05:45.364Z,16.77
2018-07-13T01:08:14.876Z,19.30
2018-07-13T01:10:44.396Z,20.83
2018-07-13T01:13:14.128Z,21.00
2018-07-13T01:15:43.676Z,18.43
2018-07-13T01:18:12.807Z,18.47
2018-07-13T01:20:42.335Z,17.73
2018-07-13T01:23:11.887Z,17.90
2018-07-13T01:25:41.679Z,18.70
2018-07-13T01:28:11.180Z,18.87
2018-07-13T01:30:40.672Z,19.20
2018-07-13T01:33:10.192Z,19.37
2018-07-13T01:35:39.671Z,20.40
2018-07-13T01:38:09.169Z,20.30
2018-07-13T01:40:38.665Z,21.30
2018-07-13T01:43:08.180Z,21.23
2018-07-13T01:45:37.668Z,21.60
2018-07-13T01:48:07.175Z,21.63
2018-07-13T01:50:36.827Z,19.83
2018-07-13T01:53:06.475Z,19.73
2018-07-13T01:55:35.998Z,20.93
2018-07-13T01:58:05.729Z,21.20
2018-07-13T02:00:35.208Z,22.57
2018-07-13T02:03:04.716Z,21.57
2018-07-13T02:05:34.217Z,22.50
2018-07-13T02:08:03.742Z,20.50
2018-07-13T02:10:33.251Z,20.63
2018-07-13T02:13:02.775Z,19.27
2018-07-13T02:15:32.259Z,19.00
2018-07-13T02:18:01.781Z,18.37
2018-07-13T02:20:31.268Z,18.43
2018-07-13T02:23:00.772Z,18.07
2018-07-13T02:25:30.465Z,17.67
2018-07-13T02:27:59.968Z,18.07
2018-07-13T02:30:29.448Z,18.03
2018-07-13T02:32:58.964Z,17.77
2018-07-13T02:35:28.452Z,17.40
2018-07-13T02:37:57.982Z,18.40
2018-07-13T02:40:27.465Z,17.33
2018-07-13T02:42:56.972Z,17.70
2018-07-13T02:45:26.452Z,18.97
2018-07-13T02:47:55.960Z,17.47
2018-07-13T02:50:25.452Z,18.43
2018-07-13T02:52:55.057Z,19.17
2018-07-13T02:55:24.546Z,18.37
2018-07-13T02:57:54.068Z,20.57
2018-07-13T03:00:23.734Z,19.87
2018-07-13T03:02:53.257Z,21.53
2018-07-13T03:05:22.763Z,21.53
2018-07-13T03:07:52.396Z,21.53
2018-07-13T03:10:21.880Z,21.27
2018-07-13T03:12:51.383Z,22.07
2018-07-13T03:15:20.872Z,23.10
2018-07-13T03:17:50.393Z,21.43
2018-07-13T03:20:19.883Z,23.73
2018-07-13T03:23:51.673Z,23.07
2018-07-13T03:26:21.160Z,22.47
2018-07-13T03:28:50.666Z,22.83
2018-07-13T03:31:20.144Z,21.03
2018-07-13T03:33:49.640Z,20.13
2018-07-13T03:36:19.348Z,20.07
2018-07-13T03:38:48.854Z,18.70
2018-07-13T03:41:18.364Z,18.63
2018-07-13T03:43:47.868Z,19.20
2018-07-13T03:46:17.352Z,19.73
2018-07-13T03:48:46.885Z,19.53
2018-07-13T03:51:16.356Z,19.67
2018-07-13T03:53:45.860Z,18.77
2018-07-13T03:56:15.564Z,17.63
2018-07-13T03:58:45.075Z,18.10
2018-07-13T04:01:14.593Z,17.93
2018-07-13T04:04:05.375Z,17.70
2018-07-13T04:06:34.907Z,20.60
2018-07-13T04:09:07.716Z,19.50
2018-07-13T04:11:37.294Z,17.70
2018-07-13T04:14:07.657Z,18.93
2018-07-13T04:16:37.161Z,19.13
2018-07-13T04:19:06.904Z,17.70
2018-07-13T04:21:36.596Z,18.83
2018-07-13T04:24:06.296Z,19.47
2018-07-13T04:26:36.247Z,17.53
2018-07-13T04:29:06.078Z,18.10
2018-07-13T04:31:35.576Z,17.60
2018-07-13T04:34:05.096Z,16.07
2018-07-13T04:36:34.920Z,16.63
2018-07-13T04:39:05.091Z,16.03
2018-07-13T04:41:34.605Z,15.93
2018-07-13T04:44:04.132Z,15.33
2018-07-13T04:46:33.784Z,15.13
2018-07-13T04:49:03.544Z,14.47
2018-07-13T04:51:33.148Z,14.17
2018-07-13T04:54:03.164Z,16.57
2018-07-13T04:56:32.946Z,16.00
2018-07-13T04:59:02.680Z,14.93
2018-07-13T05:01:32.425Z,16.47
2018-07-13T05:04:01.423Z,17.13
2018-07-13T05:06:31.172Z,17.20
2018-07-13T05:09:00.784Z,15.87
2018-07-13T05:11:30.344Z,16.10
2018-07-13T05:14:00.328Z,17.47
2018-07-13T05:16:30.088Z,18.47
2018-07-13T05:18:59.600Z,16.57
2018-07-13T05:21:29.230Z,15.97
2018-07-13T05:23:58.972Z,15.97
2018-07-13T05:26:29.373Z,16.63
2018-07-13T05:28:59.128Z,15.57
2018-07-13T05:31:28.905Z,17.43
2018-07-13T05:33:58.692Z,17.70
2018-07-13T05:36:28.347Z,17.93
2018-07-13T05:38:57.975Z,17.17
2018-07-13T05:41:27.943Z,18.10
2018-07-13T05:43:57.959Z,17.07
2018-07-13T05:46:27.544Z,19.10
2018-07-13T05:48:57.261Z,18.50
2018-07-13T05:51:27.017Z,18.13
2018-07-13T05:53:56.709Z,18.37
2018-07-13T05:56:26.717Z,17.50
2018-07-13T05:58:56.356Z,17.80
2018-07-13T06:01:26.035Z,19.40
2018-07-13T06:03:55.679Z,18.73
2018-07-13T06:06:25.396Z,18.40
2018-07-13T06:08:54.972Z,20.43
2018-07-13T06:11:24.714Z,20.10
2018-07-13T06:13:54.325Z,18.63
2018-07-13T06:16:23.827Z,18.63
2018-07-13T06:18:53.368Z,19.03
2018-07-13T06:21:22.925Z,18.33
2018-07-13T06:23:53.940Z,18.17
2018-07-13T06:26:23.436Z,17.77
2018-07-13T06:28:52.996Z,19.00
2018-07-13T06:31:23.386Z,19.37
2018-07-13T06:33:52.585Z,19.10
2018-07-13T06:36:22.285Z,19.83
2018-07-13T06:38:51.861Z,20.43
2018-07-13T06:41:21.612Z,20.53
2018-07-13T06:43:51.208Z,20.07
2018-07-13T06:46:20.728Z,18.47
2018-07-13T06:48:50.324Z,20.83
2018-07-13T06:51:19.953Z,19.07
2018-07-13T06:53:48.939Z,18.33
2018-07-13T06:56:18.496Z,18.70
2018-07-13T06:59:00.656Z,19.40
2018-07-13T07:01:30.247Z,18.50
2018-07-13T07:04:37.727Z,17.30
2018-07-13T07:07:11.830Z,16.30
2018-07-13T07:09:43.648Z,14.93
2018-07-13T07:12:56.273Z,13.43
2018-07-13T07:15:26.203Z,12.77
2018-07-13T07:17:56.139Z,12.30
2018-07-13T07:20:25.680Z,14.80
2018-07-13T07:22:55.257Z,15.27
2018-07-13T07:25:25.299Z,12.13
2018-07-13T07:27:54.888Z,12.57
2018-07-13T07:30:25.532Z,9.70
2018-07-13T07:32:55.068Z,10.27
2018-07-13T07:35:24.560Z,10.33
2018-07-13T07:37:54.067Z,12.17
2018-07-13T07:40:29.983Z,9.33
2018-07-13T07:43:00.193Z,9.17
2018-07-13T07:45:29.888Z,8.57
2018-07-13T07:47:59.457Z,8.60
2018-07-13T07:50:29.048Z,8.03
2018-07-13T07:52:58.653Z,9.20
2018-07-13T07:55:28.200Z,8.93
2018-07-13T07:57:57.708Z,8.67
2018-07-13T08:00:27.274Z,8.63
2018-07-13T08:02:56.792Z,7.40
2018-07-13T08:05:29.707Z,7.97
2018-07-13T08:07:59.359Z,7.53
2018-07-13T08:10:28.900Z,6.73
2018-07-13T08:12:58.428Z,6.27
2018-07-13T08:15:27.969Z,6.03
2018-07-13T08:17:57.500Z,7.37
2018-07-13T08:20:30.726Z,7.70
2018-07-13T08:23:01.749Z,6.70
2018-07-13T08:25:32.113Z,5.60
2018-07-13T08:28:03.801Z,5.40
2018-07-13T08:30:35.553Z,5.67
2018-07-13T08:33:05.205Z,5.50
2018-07-13T08:35:34.753Z,5.50
2018-07-13T08:38:04.128Z,5.07
2018-07-13T08:40:33.746Z,5.33
2018-07-13T08:43:03.429Z,6.17
2018-07-13T08:45:33.016Z,6.83
2018-07-13T08:48:02.679Z,6.87
2018-07-13T08:50:33.012Z,5.97
2018-07-13T08:53:02.704Z,6.33
2018-07-13T08:55:31.687Z,7.63
2018-07-13T08:58:01.424Z,6.97
2018-07-13T09:00:31.173Z,6.03
2018-07-13T09:03:00.728Z,6.23
2018-07-13T09:05:30.646Z,7.00
2018-07-13T09:08:00.132Z,6.33
2018-07-13T09:10:29.616Z,6.80
2018-07-13T09:12:59.204Z,6.30
2018-07-13T09:15:28.852Z,6.23
2018-07-13T09:17:58.452Z,5.13
2018-07-13T09:20:28.064Z,4.30
2018-07-13T09:22:57.553Z,4.57
2018-07-13T09:25:27.083Z,4.47
2018-07-13T09:27:55.971Z,5.20
2018-07-13T09:30:25.893Z,5.00
2018-07-13T09:32:55.412Z,5.40
2018-07-13T09:35:25.024Z,5.20
2018-07-13T09:37:54.630Z,4.80
2018-07-13T09:40:24.385Z,4.70
2018-07-13T09:42:54.131Z,4.87
2018-07-13T09:45:23.640Z,4.37
2018-07-13T09:47:52.975Z,4.60
2018-07-13T09:50:22.720Z,4.63
2018-07-13T09:52:52.729Z,4.77
2018-07-13T09:55:22.247Z,4.43
2018-07-13T09:57:51.716Z,4.33
2018-07-13T10:00:21.649Z,4.53
2018-07-13T10:02:51.260Z,4.67
2018-07-13T10:05:20.861Z,4.60
2018-07-13T10:07:50.423Z,4.97
2018-07-13T10:10:19.963Z,4.20
2018-07-13T10:12:49.560Z,3.97
2018-07-13T10:15:19.132Z,4.30
2018-07-13T10:17:48.924Z,4.50
2018-07-13T10:20:18.519Z,4.90
2018-07-13T10:22:48.240Z,4.70
2018-07-13T10:25:17.996Z,4.37
2018-07-13T10:27:47.726Z,4.70
2018-07-13T10:30:17.473Z,4.97
2018-07-13T10:32:47.197Z,4.80
2018-07-13T10:35:16.985Z,4.73
2018-07-13T10:37:46.607Z,4.67
2018-07-13T10:40:16.124Z,4.90
2018-07-13T10:42:45.617Z,4.50
2018-07-13T10:45:15.164Z,4.57
2018-07-13T10:47:44.678Z,5.30
2018-07-13T10:50:15.762Z,5.13
2018-07-13T10:52:45.279Z,5.40
2018-07-13T10:55:14.785Z,6.17
2018-07-13T10:57:44.288Z,5.43
2018-07-13T11:00:13.821Z,6.13
2018-07-13T11:02:46.280Z,6.10
2018-07-13T11:05:15.912Z,5.90
2018-07-13T11:07:45.412Z,6.20
2018-07-13T11:10:14.879Z,6.10
2018-07-13T11:12:44.384Z,6.07
2018-07-13T11:15:13.888Z,6.40
2018-07-13T11:17:43.396Z,6.37
2018-07-13T11:20:12.871Z,6.27
2018-07-13T11:22:42.631Z,6.70
2018-07-13T11:25:12.107Z,7.20
2018-07-13T11:27:41.620Z,7.20
2018-07-13T11:30:11.140Z,7.37
2018-07-13T11:32:40.640Z,6.80
2018-07-13T11:35:10.156Z,6.87
2018-07-13T11:37:39.653Z,6.73
2018-07-13T11:40:09.128Z,6.67
2018-07-13T11:42:38.652Z,6.80
2018-07-13T11:45:08.144Z,6.67
2018-07-13T11:47:37.708Z,6.10
2018-07-13T11:50:07.263Z,6.27
2018-07-13T11:52:37.087Z,6.30
2018-07-13T11:55:06.648Z,5.97
2018-07-13T11:57:36.128Z,6.53
2018-07-13T12:00:05.891Z,5.77
2018-07-13T12:02:35.445Z,5.40
2018-07-13T12:05:04.956Z,5.77
2018-07-13T12:07:34.774Z,5.73
2018-07-13T12:10:04.653Z,5.80
2018-07-13T12:12:33.653Z,5.77
2018-07-13T12:15:02.542Z,6.07
2018-07-13T12:17:32.136Z,5.50
2018-07-13T12:20:01.882Z,5.73
2018-07-13T12:22:31.437Z,5.43
2018-07-13T12:25:00.932Z,5.70
2018-07-13T12:27:30.783Z,5.43
2018-07-13T12:30:00.263Z,5.30
2018-07-13T12:32:29.803Z,5.67
2018-07-13T12:34:59.657Z,5.30
2018-07-13T12:37:29.184Z,6.67
2018-07-13T12:39:58.711Z,6.73
2018-07-13T12:42:28.254Z,6.93
2018-07-13T12:44:57.735Z,7.00
2018-07-13T12:47:27.232Z,6.40
2018-07-13T12:49:56.122Z,6.23
2018-07-13T12:52:25.640Z,6.00
2018-07-13T12:54:56.321Z,6.70
2018-07-13T12:57:25.830Z,6.40
2018-07-13T12:59:58.238Z,6.60
2018-07-13T13:02:32.887Z,7.13
2018-07-13T13:07:55.285Z,6.33
2018-07-13T13:10:24.840Z,5.10
2018-07-13T13:12:54.753Z,4.93
2018-07-13T13:15:24.351Z,4.50
2018-07-13T13:17:53.901Z,4.57
2018-07-13T13:20:23.396Z,5.30
2018-07-13T13:22:53.000Z,5.90
2018-07-13T13:25:22.609Z,6.40
2018-07-13T13:27:52.142Z,6.37
2018-07-13T13:30:21.640Z,6.47
2018-07-13T13:32:51.158Z,6.63
2018-07-13T13:35:20.669Z,6.67
2018-07-13T13:37:50.177Z,6.73
2018-07-13T13:40:19.658Z,6.50
2018-07-13T13:42:49.186Z,6.90
2018-07-13T13:45:18.689Z,6.83
2018-07-13T13:47:48.193Z,6.53
2018-07-13T13:50:17.689Z,6.57
2018-07-13T13:52:47.202Z,6.60
2018-07-13T13:55:17.545Z,6.97
2018-07-13T13:57:47.068Z,7.13
2018-07-13T14:00:16.585Z,6.40
2018-07-13T14:02:46.093Z,6.83
2018-07-13T14:05:15.706Z,6.90
2018-07-13T14:07:45.149Z,6.40
2018-07-13T14:10:14.977Z,5.93
2018-07-13T14:12:44.156Z,6.17
2018-07-13T14:15:13.733Z,5.57
2018-07-13T14:17:43.265Z,5.60
2018-07-13T14:20:12.796Z,5.73
2018-07-13T14:22:41.711Z,5.53
2018-07-13T14:25:11.308Z,5.53
2018-07-13T14:27:40.853Z,5.10
2018-07-13T14:30:10.346Z,5.47
2018-07-13T14:32:39.881Z,5.33
2018-07-13T14:35:09.397Z,2.80
2018-07-13T14:37:38.929Z,3.00
2018-07-13T14:40:08.710Z,2.90
2018-07-13T14:42:38.260Z,3.07
2018-07-13T14:45:07.837Z,4.03
2018-07-13T14:47:37.361Z,3.73
2018-07-13T14:50:07.021Z,3.73
2018-07-13T14:52:36.561Z,3.30
2018-07-13T14:55:06.342Z,2.70
2018-07-13T14:57:36.205Z,2.53
2018-07-13T15:00:05.759Z,2.37
2018-07-13T15:02:35.285Z,2.60
2018-07-13T15:05:05.031Z,2.57
2018-07-13T15:07:34.565Z,2.70
2018-07-13T15:10:04.090Z,3.20
2018-07-13T15:12:33.631Z,3.87
2018-07-13T15:15:03.123Z,3.50
2018-07-13T15:17:32.670Z,3.73
2018-07-13T15:20:02.205Z,3.77
2018-07-13T15:22:31.777Z,3.50
2018-07-13T15:25:01.273Z,4.47
2018-07-13T15:27:30.797Z,3.60
2018-07-13T15:30:00.309Z,3.83
2018-07-13T15:32:29.846Z,4.63
2018-07-13T15:34:59.369Z,3.77
2018-07-13T15:37:29.058Z,4.23
2018-07-13T15:39:58.008Z,3.67
2018-07-13T15:42:27.524Z,4.20
2018-07-13T15:44:57.050Z,3.87
2018-07-13T15:47:26.564Z,3.60
2018-07-13T15:49:56.105Z,3.73
2018-07-13T15:52:25.633Z,3.67
2018-07-13T15:54:55.169Z,3.87
2018-07-13T15:57:24.681Z,3.93
2018-07-13T15:59:54.197Z,4.00
2018-07-13T16:02:23.745Z,4.27
2018-07-13T16:04:53.629Z,4.50
2018-07-13T16:07:23.205Z,4.97
2018-07-13T16:09:52.722Z,4.40
2018-07-13T16:12:22.401Z,4.90
2018-07-13T16:14:51.933Z,4.50
2018-07-13T16:17:22.003Z,4.20
2018-07-13T16:19:51.761Z,4.20
2018-07-13T16:22:21.273Z,4.33
2018-07-13T16:24:51.005Z,3.80
2018-07-13T16:27:19.906Z,4.00
2018-07-13T16:29:49.421Z,4.20
2018-07-13T16:32:19.090Z,4.30
2018-07-13T16:34:48.601Z,3.50
2018-07-13T16:37:18.106Z,3.83
2018-07-13T16:39:47.933Z,4.00
2018-07-13T16:42:17.425Z,5.23
2018-07-13T16:44:46.962Z,5.80
2018-07-13T16:47:16.450Z,6.90
2018-07-13T16:49:45.957Z,4.17
2018-07-13T16:52:15.461Z,4.30
2018-07-13T16:54:45.006Z,4.50
2018-07-13T16:57:14.589Z,3.97
2018-07-13T16:59:44.169Z,3.87
2018-07-13T17:02:13.693Z,4.37
2018-07-13T17:04:43.249Z,4.00
2018-07-13T17:07:12.765Z,4.50
2018-07-13T17:09:42.285Z,4.03
2018-07-13T17:12:11.871Z,4.70
2018-07-13T17:14:41.421Z,4.67
2018-07-13T17:17:10.949Z,8.73
2018-07-13T17:19:40.508Z,5.90
2018-07-13T17:22:10.162Z,5.33
2018-07-13T17:24:39.701Z,4.80
2018-07-13T17:27:09.213Z,4.90
2018-07-13T17:29:39.450Z,5.07
2018-07-13T17:32:08.958Z,4.90
2018-07-13T17:34:38.497Z,4.60
2018-07-13T17:37:08.076Z,4.90
2018-07-13T17:39:37.658Z,5.30
2018-07-13T17:42:07.173Z,4.93
2018-07-13T17:44:36.713Z,5.80
2018-07-13T17:47:06.412Z,5.83
2018-07-13T17:49:36.070Z,5.63
2018-07-13T17:52:05.581Z,4.73
2018-07-13T17:54:35.128Z,4.13
2018-07-13T17:57:04.670Z,4.40
2018-07-13T17:59:34.204Z,4.90
2018-07-13T18:02:03.717Z,4.50
2018-07-13T18:04:33.240Z,4.73
2018-07-13T18:07:02.813Z,4.07
2018-07-13T18:09:32.409Z,4.03
2018-07-13T18:12:01.933Z,3.33
2018-07-13T18:14:31.466Z,3.27
2018-07-13T18:17:01.013Z,2.77
2018-07-13T18:19:30.577Z,3.40
2018-07-13T18:22:01.125Z,3.10
2018-07-13T18:24:30.781Z,3.07
2018-07-13T18:27:00.290Z,2.93
2018-07-13T18:29:29.808Z,2.60
2018-07-13T18:31:59.385Z,2.77
2018-07-13T18:37:12.920Z,2.70
2018-07-13T18:39:42.529Z,2.50
2018-07-13T18:42:12.100Z,2.63
2018-07-13T18:44:41.621Z,2.47
2018-07-13T18:47:11.692Z,2.60
2018-07-13T18:49:41.431Z,2.70
2018-07-13T18:52:10.954Z,2.70
2018-07-13T18:54:40.525Z,2.40
2018-07-13T18:57:10.049Z,2.73
2018-07-13T18:59:39.603Z,2.90
2018-07-13T19:02:09.130Z,2.47
2018-07-13T19:04:38.842Z,2.40
2018-07-13T19:07:08.373Z,2.87
2018-07-13T19:09:37.969Z,3.00
2018-07-13T19:12:07.754Z,2.90
2018-07-13T19:14:37.310Z,2.90
2018-07-13T19:17:07.117Z,2.97
2018-07-13T19:19:36.794Z,2.70
2018-07-13T19:22:06.329Z,3.10
2018-07-13T19:24:35.861Z,3.30
2018-07-13T19:27:05.374Z,3.13
2018-07-13T19:29:34.937Z,3.00
2018-07-13T19:32:04.089Z,3.10
2018-07-13T19:34:33.629Z,3.10
2018-07-13T19:37:03.141Z,3.00
2018-07-13T19:39:32.084Z,4.43
2018-07-13T19:42:01.600Z,4.90
2018-07-13T19:44:31.133Z,3.53
2018-07-13T19:47:00.634Z,3.70
2018-07-13T19:49:30.165Z,3.70
2018-07-13T19:51:59.685Z,3.43
2018-07-13T19:54:29.221Z,3.90
2018-07-13T19:56:58.905Z,3.90
2018-07-13T19:59:28.492Z,3.73
2018-07-13T20:01:58.245Z,3.77
2018-07-13T20:04:27.772Z,3.87
2018-07-13T20:06:57.286Z,3.97
2018-07-13T20:09:26.882Z,3.80
2018-07-13T20:11:56.409Z,4.00
2018-07-13T20:14:25.355Z,4.03
2018-07-13T20:16:54.894Z,3.80
2018-07-13T20:19:24.477Z,3.87
2018-07-13T20:21:53.989Z,4.43
2018-07-13T20:24:23.518Z,4.27
2018-07-13T20:26:53.037Z,3.60
2018-07-13T20:29:22.749Z,4.30
2018-07-13T20:31:52.296Z,4.07
2018-07-13T20:34:22.205Z,3.87
2018-07-13T20:36:51.753Z,4.10
2018-07-13T20:39:21.900Z,3.90
2018-07-13T20:41:51.590Z,3.90
2018-07-13T20:44:21.116Z,3.90
2018-07-13T20:46:50.630Z,4.30
2018-07-13T20:49:20.230Z,3.80
2018-07-13T20:51:49.824Z,4.33
2018-07-13T20:54:19.449Z,4.00
2018-07-13T20:56:48.368Z,4.73
2018-07-13T20:59:17.956Z,4.27
2018-07-13T21:01:47.477Z,4.10
2018-07-13T21:04:17.027Z,4.30
2018-07-13T21:06:46.526Z,4.30
2018-07-13T21:09:16.184Z,4.33
2018-07-13T21:11:45.724Z,4.60
2018-07-13T21:14:15.216Z,3.90
2018-07-13T21:16:44.756Z,4.17
2018-07-13T21:19:14.521Z,4.53
2018-07-13T21:21:44.067Z,4.70
2018-07-13T21:24:13.627Z,4.43
2018-07-13T21:26:43.235Z,4.83
2018-07-13T21:29:12.787Z,4.47
2018-07-13T21:31:42.395Z,5.70
2018-07-13T21:34:11.940Z,5.50
2018-07-13T21:36:41.468Z,5.63
2018-07-13T21:39:10.976Z,5.87
2018-07-13T21:41:40.508Z,5.70
2018-07-13T21:44:10.004Z,5.83
2018-07-13T21:46:39.572Z,6.10
2018-07-13T21:49:09.157Z,6.00
2018-07-13T21:51:38.756Z,5.37
2018-07-13T21:54:08.576Z,5.40
2018-07-13T21:56:38.228Z,5.30
2018-07-13T21:59:07.728Z,5.60
2018-07-13T22:01:37.330Z,5.27
2018-07-13T22:04:06.878Z,5.30
2018-07-13T22:06:36.380Z,5.23
2018-07-13T22:09:06.416Z,5.20
2018-07-13T22:11:36.016Z,5.43
2018-07-13T22:14:05.612Z,5.77
2018-07-13T22:16:35.184Z,5.20
2018-07-13T22:19:04.749Z,5.43
2018-07-13T22:21:34.734Z,4.93
2018-07-13T22:24:04.284Z,5.40
2018-07-13T22:26:33.778Z,5.60
2018-07-13T22:29:03.395Z,5.10
2018-07-13T22:31:32.997Z,5.07
2018-07-13T22:34:02.546Z,5.50
2018-07-13T22:36:32.054Z,5.03
2018-07-13T22:39:01.601Z,4.93
2018-07-13T22:41:31.161Z,5.07
2018-07-13T22:44:00.852Z,5.23
2018-07-13T22:46:30.476Z,5.10
2018-07-13T22:48:59.968Z,5.17
2018-07-13T22:51:29.489Z,4.90
2018-07-13T22:53:59.008Z,5.20
2018-07-13T22:56:28.437Z,5.30
2018-07-13T22:58:57.893Z,5.23
2018-07-13T23:01:27.753Z,5.80
2018-07-13T23:03:57.322Z,5.40
2018-07-13T23:06:26.826Z,5.00
2018-07-13T23:08:56.325Z,5.00
2018-07-13T23:11:25.781Z,5.13
2018-07-13T23:13:55.750Z,5.07
2018-07-13T23:16:25.264Z,4.83
2018-07-13T23:18:54.710Z,5.07
2018-07-13T23:21:24.236Z,5.20
2018-07-13T23:23:53.713Z,5.00
2018-07-13T23:26:23.276Z,5.07
2018-07-13T23:28:52.781Z,5.17
2018-07-13T23:31:22.301Z,5.37
2018-07-13T23:33:51.753Z,5.20
2018-07-13T23:36:21.252Z,5.90
2018-07-13T23:38:50.853Z,5.30
2018-07-13T23:41:20.352Z,5.20
2018-07-13T23:43:49.897Z,5.30
2018-07-13T23:46:19.441Z,5.37
2018-07-13T23:48:48.947Z,5.77
2018-07-13T23:51:18.474Z,5.50
2018-07-13T23:53:47.983Z,5.33
2018-07-13T23:56:17.514Z,5.37
2018-07-13T23:58:47.445Z,5.27
